Time;durP1;ratioP1;P1;durP2;ratioP2;P2;SDS_P1;SDS_P2;PMS_P1;PMS_P2;Temp;Humidity;BMP_temperature;BMP_pressure;BME280_temperature;BME280_humidity;BME280_pressure;Samples;Min_cycle;Max_cycle;Signal;HPM_P1;HPM_P2
2021/06/16 06:51:08;;;;;;;8.13;5.38;;;;;;;;;;5666638;23;20267;-50
2021/06/16 06:53:34;;;;;;;8.77;5.68;;;;;;;;;;4963206;28;20435;-59
2021/06/16 06:56:00;;;;;;;6.88;5.47;;;;;;;;;;4960007;28;20134;-56
2021/06/16 06:58:28;;;;;;;7.67;5.50;;;;;;;;;;4953563;28;20487;-47
2021/06/16 07:00:54;;;;;;;5.32;4.60;;;;;;;;;;4953006;28;20262;-52
2021/06/16 07:03:21;;;;;;;7.53;5.07;;;;;;;;;;4962979;28;20043;-49
2021/06/16 07:05:47;;;;;;;5.18;4.38;;;;;;;;;;4961324;28;20452;-46
2021/06/16 07:08:13;;;;;;;5.18;3.97;;;;;;;;;;4967523;28;20102;-50
2021/06/16 07:10:39;;;;;;;6.70;4.03;;;;;;;;;;4967724;28;20134;-48
2021/06/16 07:13:05;;;;;;;6.07;4.43;;;;;;;;;;4961513;28;20025;-48
2021/06/16 07:15:32;;;;;;;4.67;4.13;;;;;;;;;;4958720;28;20053;-45
2021/06/16 07:17:58;;;;;;;4.72;4.28;;;;;;;;;;4970058;28;20394;-46
2021/06/16 07:20:25;;;;;;;6.40;4.68;;;;;;;;;;4959555;28;20524;-47
2021/06/16 07:23:34;;;;;;;5.60;4.05;;;;;;;;;;5115978;27;20359;-48
2021/06/16 07:26:00;;;;;;;5.82;4.13;;;;;;;;;;5105446;28;20031;-55
2021/06/16 07:28:26;;;;;;;6.20;4.07;;;;;;;;;;5085859;28;20059;-51
2021/06/16 07:30:52;;;;;;;5.30;3.77;;;;;;;;;;5104724;28;20575;-47
2021/06/16 07:33:18;;;;;;;4.67;3.80;;;;;;;;;;5103543;28;20016;-48
2021/06/16 07:35:45;;;;;;;4.40;3.88;;;;;;;;;;5107052;28;20428;-47
2021/06/16 07:38:12;;;;;;;5.50;4.07;;;;;;;;;;5100941;28;20456;-49
2021/06/16 07:40:38;;;;;;;4.40;4.00;;;;;;;;;;5106296;28;20027;-49
2021/06/16 07:43:04;;;;;;;3.90;3.53;;;;;;;;;;5106343;28;20028;-47
2021/06/16 07:45:31;;;;;;;3.80;3.40;;;;;;;;;;5097467;28;20024;-46
2021/06/16 07:47:57;;;;;;;4.10;3.47;;;;;;;;;;5106347;28;20030;-50
2021/06/16 07:50:23;;;;;;;3.28;2.90;;;;;;;;;;5105049;28;20036;-52
2021/06/16 07:52:51;;;;;;;5.63;3.15;;;;;;;;;;5105308;28;20096;-48
2021/06/16 07:55:17;;;;;;;3.70;3.10;;;;;;;;;;5106694;28;20336;-47
2021/06/16 07:57:43;;;;;;;3.72;3.28;;;;;;;;;;5098969;28;20493;-48
2021/06/16 08:00:09;;;;;;;4.00;3.37;;;;;;;;;;5101497;28;20023;-50
2021/06/16 08:02:37;;;;;;;3.58;2.83;;;;;;;;;;5104816;28;20093;-49
2021/06/16 08:05:03;;;;;;;3.08;2.65;;;;;;;;;;5096849;28;20035;-49
2021/06/16 08:07:29;;;;;;;3.70;3.05;;;;;;;;;;5096768;28;20501;-47
2021/06/16 08:09:56;;;;;;;3.55;2.90;;;;;;;;;;5105296;28;20352;-49
2021/06/16 08:12:22;;;;;;;3.00;2.67;;;;;;;;;;5105607;28;20020;-50
2021/06/16 08:14:50;;;;;;;3.67;2.10;;;;;;;;;;5105430;28;20031;-49
2021/06/16 08:17:16;;;;;;;2.83;2.05;;;;;;;;;;5094273;28;20261;-47
2021/06/16 08:19:43;;;;;;;2.40;2.05;;;;;;;;;;5105567;28;20491;-47
2021/06/16 08:22:11;;;;;;;4.47;2.63;;;;;;;;;;5105040;28;20052;-47
2021/06/16 08:24:38;;;;;;;5.00;2.88;;;;;;;;;;5105232;28;20028;-49
2021/06/16 08:27:05;;;;;;;4.72;3.25;;;;;;;;;;5105131;28;20027;-49
2021/06/16 08:29:31;;;;;;;;;;;;;;;;;;5104302;28;20028;-50
2021/06/16 08:31:57;;;;;;;3.80;2.72;;;;;;;;;;5105968;28;19961;-49
2021/06/16 08:34:23;;;;;;;4.87;3.00;;;;;;;;;;5094996;28;20085;-47
2021/06/16 08:36:49;;;;;;;6.93;3.70;;;;;;;;;;5090871;28;20057;-56
2021/06/16 08:39:16;;;;;;;3.08;2.65;;;;;;;;;;5091369;28;20124;-48
2021/06/16 08:41:42;;;;;;;3.45;2.70;;;;;;;;;;5090710;28;20085;-48
2021/06/16 08:44:10;;;;;;;4.25;2.70;;;;;;;;;;5091984;28;20119;-48
2021/06/16 08:46:36;;;;;;;3.53;2.80;;;;;;;;;;5090354;28;20032;-48
2021/06/16 08:49:04;;;;;;;4.88;2.88;;;;;;;;;;5092608;28;20154;-49
2021/06/16 08:51:30;;;;;;;3.00;2.70;;;;;;;;;;5090852;28;20024;-47
2021/06/16 08:53:56;;;;;;;5.70;3.15;;;;;;;;;;5091332;28;20028;-47
2021/06/16 08:56:22;;;;;;;3.08;2.78;;;;;;;;;;5092856;28;20020;-47
2021/06/16 08:58:48;;;;;;;5.47;2.72;;;;;;;;;;5092606;28;20034;-47
2021/06/16 09:01:16;;;;;;;3.58;2.65;;;;;;;;;;5092053;28;20118;-47
2021/06/16 09:03:42;;;;;;;3.42;2.95;;;;;;;;;;5093133;28;20048;-46
2021/06/16 09:06:10;;;;;;;2.60;2.38;;;;;;;;;;5074358;28;20453;-45
2021/06/16 09:08:55;;;;;;;3.28;2.47;;;;;;;;;;5090999;28;20456;-44
2021/06/16 09:11:22;;;;;;;3.15;2.60;;;;;;;;;;5092498;28;20107;-45
2021/06/16 09:13:48;;;;;;;2.78;2.40;;;;;;;;;;5091385;28;20036;-44
2021/06/16 09:16:25;;;;;;;3.17;2.50;;;;;;;;;;5082027;28;20044;-44
2021/06/16 09:18:51;;;;;;;3.55;2.83;;;;;;;;;;5088843;28;20032;-43
2021/06/16 09:21:17;;;;;;;2.90;2.47;;;;;;;;;;5092303;28;20020;-45
2021/06/16 09:23:43;;;;;;;3.05;2.50;;;;;;;;;;5092245;28;20262;-46
2021/06/16 09:26:11;;;;;;;2.55;2.35;;;;;;;;;;5094735;28;20056;-46
2021/06/16 09:28:37;;;;;;;3.50;3.08;;;;;;;;;;5110250;28;20032;-46
2021/06/16 09:31:04;;;;;;;4.17;2.80;;;;;;;;;;5099112;28;20021;-43
2021/06/16 09:33:30;;;;;;;2.70;2.17;;;;;;;;;;5092104;28;20691;-44
2021/06/16 09:35:56;;;;;;;2.78;2.40;;;;;;;;;;5091128;28;20417;-45
2021/06/16 09:38:28;;;;;;;3.30;2.55;;;;;;;;;;5091681;28;20050;-43
2021/06/16 09:40:55;;;;;;;2.88;2.50;;;;;;;;;;5092307;28;20074;-43
2021/06/16 09:43:22;;;;;;;3.75;2.63;;;;;;;;;;5092032;28;20040;-44
2021/06/16 09:46:08;;;;;;;2.80;2.60;;;;;;;;;;5093324;28;20119;-40
2021/06/16 09:48:35;;;;;;;2.70;2.50;;;;;;;;;;5090963;28;20103;-40
2021/06/16 09:51:39;;;;;;;2.83;2.53;;;;;;;;;;5091274;28;20024;-44
2021/06/16 09:54:13;;;;;;;3.03;2.35;;;;;;;;;;5092182;28;20050;-43
2021/06/16 09:56:44;;;;;;;2.78;2.53;;;;;;;;;;5108906;28;20051;-40
2021/06/16 09:59:13;;;;;;;3.30;3.00;;;;;;;;;;5084388;28;20441;-45
2021/06/16 10:01:50;;;;;;;4.53;3.42;;;;;;;;;;5084279;28;20036;-41
2021/06/16 10:04:44;;;;;;;4.65;4.07;;;;;;;;;;5078500;28;20020;-42
2021/06/16 10:07:24;;;;;;;7.18;3.97;;;;;;;;;;5084028;28;20028;-42
2021/06/16 10:10:10;;;;;;;4.88;3.85;;;;;;;;;;5081712;28;20497;-42
2021/06/16 10:12:41;;;;;;;4.00;3.63;;;;;;;;;;5078887;28;20059;-41
2021/06/16 10:15:12;;;;;;;4.38;3.88;;;;;;;;;;5084610;28;20065;-45
2021/06/16 10:17:39;;;;;;;6.00;4.28;;;;;;;;;;5084789;28;20030;-45
2021/06/16 10:20:06;;;;;;;5.22;4.45;;;;;;;;;;5073012;28;20231;-43
2021/06/16 10:22:32;;;;;;;7.05;5.47;;;;;;;;;;5086533;28;20048;-43
2021/06/16 10:24:59;;;;;;;6.75;5.30;;;;;;;;;;5083266;28;20440;-41
2021/06/16 10:27:25;;;;;;;5.75;5.22;;;;;;;;;;5077594;28;20448;-42
2021/06/16 10:29:52;;;;;;;8.13;5.25;;;;;;;;;;5089769;28;20078;-41
2021/06/16 10:32:18;;;;;;;7.18;5.32;;;;;;;;;;5087629;28;20105;-41
2021/06/16 10:34:57;;;;;;;7.93;4.97;;;;;;;;;;5088859;28;20048;-41
2021/06/16 10:37:25;;;;;;;8.60;6.15;;;;;;;;;;5087971;28;20028;-41
2021/06/16 10:40:17;;;;;;;6.13;5.53;;;;;;;;;;5088627;28;20030;-41
2021/06/16 10:42:59;;;;;;;8.45;5.63;;;;;;;;;;5089481;28;20044;-42
2021/06/16 10:45:35;;;;;;;31.20;12.60;;;;;;;;;;5097732;28;20036;-44
2021/06/16 10:48:03;;;;;;;;;;;;;;;;;;5078838;28;20032;-41
2021/06/16 10:50:49;;;;;;;26.52;12.40;;;;;;;;;;5076440;28;19911;-42
2021/06/16 10:53:25;;;;;;;24.30;11.13;;;;;;;;;;5077620;28;20020;-41
2021/06/16 10:55:55;;;;;;;29.83;15.27;;;;;;;;;;5085186;28;20119;-42
2021/06/16 10:58:22;;;;;;;27.25;12.63;;;;;;;;;;5088663;28;20020;-42
2021/06/16 11:01:16;;;;;;;24.40;12.75;;;;;;;;;;5089095;28;20052;-41
2021/06/16 11:03:42;;;;;;;;;;;;;;;;;;5082127;28;20089;-42
2021/06/16 11:06:28;;;;;;;24.33;11.05;;;;;;;;;;5088980;28;19908;-42
2021/06/16 11:08:54;;;;;;;22.48;10.48;;;;;;;;;;5089035;28;20031;-43
2021/06/16 11:11:21;;;;;;;23.33;11.10;;;;;;;;;;5087797;28;20120;-43
2021/06/16 11:13:47;;;;;;;19.40;9.85;;;;;;;;;;5087465;28;20107;-42
2021/06/16 11:16:32;;;;;;;17.05;9.13;;;;;;;;;;5088547;28;20012;-42
2021/06/16 11:19:17;;;;;;;14.70;8.50;;;;;;;;;;5089112;28;20468;-42
2021/06/16 11:21:43;;;;;;;12.55;7.50;;;;;;;;;;5084152;28;20051;-43
2021/06/16 11:24:09;;;;;;;16.95;8.35;;;;;;;;;;5089570;28;20016;-42
2021/06/16 11:26:42;;;;;;;11.65;6.35;;;;;;;;;;5095138;28;20371;-41
2021/06/16 11:29:08;;;;;;;9.88;6.53;;;;;;;;;;5089607;28;20119;-43
2021/06/16 11:31:55;;;;;;;9.15;6.03;;;;;;;;;;5084938;28;20043;-46
2021/06/16 11:34:21;;;;;;;;;;;;;;;;;;5089743;28;20322;-43
2021/06/16 11:36:47;;;;;;;8.25;4.90;;;;;;;;;;5088780;28;19946;-42
2021/06/16 11:39:21;;;;;;;7.88;4.40;;;;;;;;;;5089455;28;20027;-41
2021/06/16 11:41:47;;;;;;;10.15;4.13;;;;;;;;;;5089336;28;20050;-44
2021/06/16 11:44:14;;;;;;;5.32;3.60;;;;;;;;;;5101182;28;20050;-44
2021/06/16 11:46:45;;;;;;;5.80;3.65;;;;;;;;;;5087726;28;20473;-43
2021/06/16 11:49:22;;;;;;;7.07;3.45;;;;;;;;;;5088615;28;20369;-53
2021/06/16 11:51:50;;;;;;;6.93;3.30;;;;;;;;;;5070340;28;20032;-41
2021/06/16 11:54:27;;;;;;;6.35;3.20;;;;;;;;;;5084665;28;20028;-41
2021/06/16 11:56:58;;;;;;;5.53;2.90;;;;;;;;;;5087953;28;20024;-43
2021/06/16 11:59:30;;;;;;;7.40;2.97;;;;;;;;;;5087411;28;20463;-42
2021/06/16 12:02:03;;;;;;;4.97;2.38;;;;;;;;;;5076027;28;20185;-43
2021/06/16 12:04:42;;;;;;;5.00;2.53;;;;;;;;;;5085527;28;20039;-42
2021/06/16 12:07:08;;;;;;;7.15;2.10;;;;;;;;;;5075851;28;20028;-43
2021/06/16 12:09:45;;;;;;;4.38;1.52;;;;;;;;;;5087163;28;20036;-43
2021/06/16 12:12:11;;;;;;;3.65;2.15;;;;;;;;;;5090736;28;20054;-44
2021/06/16 12:14:37;;;;;;;3.30;1.67;;;;;;;;;;5091492;28;20047;-46
2021/06/16 12:17:04;;;;;;;3.75;1.38;;;;;;;;;;5092601;28;20012;-43
2021/06/16 12:19:34;;;;;;;2.97;1.55;;;;;;;;;;5091580;28;20070;-43
2021/06/16 12:22:03;;;;;;;3.70;2.00;;;;;;;;;;5089441;28;20138;-44
2021/06/16 12:24:31;;;;;;;3.78;2.20;;;;;;;;;;5091739;28;20140;-53
2021/06/16 12:27:01;;;;;;;5.13;2.03;;;;;;;;;;5090931;28;20024;-45
2021/06/16 12:29:27;;;;;;;2.45;1.70;;;;;;;;;;5088482;28;20831;-45
2021/06/16 12:31:55;;;;;;;4.68;2.00;;;;;;;;;;5087233;28;20416;-44
2021/06/16 12:37:11;;;;;;;2.55;1.55;;;;;;;;;;5091328;28;20397;-45
2021/06/16 12:39:51;;;;;;;3.17;1.55;;;;;;;;;;5092437;28;20024;-48
2021/06/16 12:42:17;;;;;;;2.55;1.40;;;;;;;;;;5092101;28;20089;-45
2021/06/16 12:44:44;;;;;;;2.25;1.80;;;;;;;;;;5081142;28;20035;-43
2021/06/16 12:47:18;;;;;;;2.85;1.30;;;;;;;;;;5088313;28;20165;-45
2021/06/16 12:49:44;;;;;;;2.50;1.40;;;;;;;;;;5090607;28;20103;-43
2021/06/16 12:52:15;;;;;;;2.33;1.20;;;;;;;;;;5085133;28;21053;-43
2021/06/16 12:54:41;;;;;;;1.88;1.20;;;;;;;;;;5091196;28;20035;-43
2021/06/16 12:57:07;;;;;;;1.73;1.10;;;;;;;;;;5089104;28;20457;-44
2021/06/16 12:59:35;;;;;;;2.00;1.42;;;;;;;;;;5090469;28;20061;-44
2021/06/16 13:02:01;;;;;;;2.28;1.20;;;;;;;;;;5089433;28;20127;-49
2021/06/16 13:04:49;;;;;;;1.55;0.95;;;;;;;;;;5090727;28;20024;-44
2021/06/16 13:07:16;;;;;;;2.05;1.05;;;;;;;;;;5088742;28;20031;-44
2021/06/16 13:10:06;;;;;;;3.10;1.35;;;;;;;;;;5089095;28;20516;-45
2021/06/16 13:12:32;;;;;;;1.70;0.80;;;;;;;;;;5087196;28;20081;-50
2021/06/16 13:15:09;;;;;;;2.13;1.02;;;;;;;;;;5088791;28;20032;-45
2021/06/16 13:17:42;;;;;;;1.63;0.90;;;;;;;;;;5088593;28;20036;-44
2021/06/16 13:20:08;;;;;;;1.75;1.00;;;;;;;;;;5088305;28;20032;-44
2021/06/16 13:22:41;;;;;;;3.42;0.90;;;;;;;;;;5087933;28;20186;-44
2021/06/16 13:25:07;;;;;;;1.23;0.85;;;;;;;;;;5090224;28;20104;-45
2021/06/16 13:27:50;;;;;;;1.30;0.80;;;;;;;;;;5087576;28;20499;-43
2021/06/16 13:30:26;;;;;;;1.42;0.90;;;;;;;;;;5090221;28;20024;-45
2021/06/16 13:32:52;;;;;;;;;;;;;;;;;;5090079;28;20023;-45
2021/06/16 13:35:19;;;;;;;4.35;1.75;;;;;;;;;;5090138;28;20367;-44
2021/06/16 13:37:45;;;;;;;1.40;0.90;;;;;;;;;;5088866;28;20093;-44
2021/06/16 13:40:12;;;;;;;1.40;1.13;;;;;;;;;;5088595;28;20462;-43
2021/06/16 13:42:38;;;;;;;;;;;;;;;;;;5088351;28;20039;-43
2021/06/16 13:45:05;;;;;;;1.30;0.80;;;;;;;;;;5091770;28;20277;-43
2021/06/16 13:47:31;;;;;;;1.40;0.70;;;;;;;;;;5087899;28;20144;-44
2021/06/16 13:49:57;;;;;;;1.25;0.65;;;;;;;;;;5089194;28;20433;-45
2021/06/16 13:52:23;;;;;;;1.23;0.88;;;;;;;;;;5088519;28;20043;-45
2021/06/16 13:54:50;;;;;;;1.10;0.70;;;;;;;;;;5093298;28;20515;-44
2021/06/16 13:57:16;;;;;;;1.90;0.80;;;;;;;;;;5090241;28;20056;-49
2021/06/16 13:59:43;;;;;;;0.70;0.50;;;;;;;;;;5090787;28;20089;-45
2021/06/16 14:02:10;;;;;;;1.10;0.90;;;;;;;;;;5089790;28;20047;-46
2021/06/16 14:04:36;;;;;;;0.98;0.68;;;;;;;;;;5088913;28;20107;-44
2021/06/16 14:07:02;;;;;;;1.25;0.80;;;;;;;;;;5089723;28;20089;-44
2021/06/16 14:09:28;;;;;;;1.23;0.80;;;;;;;;;;5088713;28;20020;-43
2021/06/16 14:11:54;;;;;;;0.82;0.68;;;;;;;;;;5087479;28;20102;-45
2021/06/16 14:14:20;;;;;;;1.88;1.45;;;;;;;;;;5089255;28;20036;-44
2021/06/16 14:16:46;;;;;;;5.68;3.83;;;;;;;;;;5086698;28;20032;-46
2021/06/16 14:19:12;;;;;;;3.75;3.00;;;;;;;;;;5087372;28;20024;-46
2021/06/16 14:21:39;;;;;;;4.15;3.42;;;;;;;;;;5090136;28;20523;-46
2021/06/16 14:24:05;;;;;;;4.80;3.72;;;;;;;;;;5088374;28;20410;-44
2021/06/16 14:26:31;;;;;;;3.88;3.58;;;;;;;;;;5089082;28;20076;-46
2021/06/16 14:28:57;;;;;;;6.22;4.28;;;;;;;;;;5087684;28;20053;-44
2021/06/16 14:31:23;;;;;;;4.75;4.15;;;;;;;;;;5088609;28;20173;-43
2021/06/16 14:33:52;;;;;;;4.20;3.80;;;;;;;;;;5088195;28;20032;-44
2021/06/16 14:36:20;;;;;;;5.88;4.20;;;;;;;;;;5088181;28;20356;-43
2021/06/16 14:38:46;;;;;;;4.13;3.72;;;;;;;;;;5088817;28;20533;-47
2021/06/16 14:41:12;;;;;;;4.50;3.80;;;;;;;;;;5087902;28;20471;-43
2021/06/16 14:43:39;;;;;;;4.53;3.70;;;;;;;;;;5087065;28;20119;-43
2021/06/16 14:46:05;;;;;;;4.30;3.55;;;;;;;;;;5085656;28;20096;-43
2021/06/16 14:48:31;;;;;;;4.05;3.30;;;;;;;;;;5087431;28;20032;-47
2021/06/16 14:50:57;;;;;;;3.70;3.22;;;;;;;;;;5088328;28;20030;-44
2021/06/16 14:53:23;;;;;;;4.00;3.60;;;;;;;;;;5088465;28;20068;-44
2021/06/16 14:55:49;;;;;;;4.10;3.30;;;;;;;;;;5085922;28;20468;-44
2021/06/16 14:58:16;;;;;;;4.15;3.47;;;;;;;;;;5088003;28;20032;-43
2021/06/16 15:00:42;;;;;;;3.22;2.92;;;;;;;;;;5088503;28;20790;-43
2021/06/16 15:03:08;;;;;;;5.75;3.47;;;;;;;;;;5086777;28;20043;-43
2021/06/16 15:05:34;;;;;;;4.50;3.63;;;;;;;;;;5087104;28;20103;-44
2021/06/16 15:08:00;;;;;;;3.92;3.50;;;;;;;;;;5089005;28;20034;-42
2021/06/16 15:10:26;;;;;;;4.18;3.67;;;;;;;;;;5089144;28;20089;-41
2021/06/16 15:12:53;;;;;;;5.10;3.67;;;;;;;;;;5102504;28;20085;-42
2021/06/16 15:15:19;;;;;;;4.88;4.38;;;;;;;;;;5085585;28;20418;-42
2021/06/16 15:17:45;;;;;;;6.40;4.13;;;;;;;;;;5082464;28;20096;-43
2021/06/16 15:20:11;;;;;;;5.40;4.88;;;;;;;;;;5087790;28;20467;-42
2021/06/16 15:22:38;;;;;;;5.57;4.40;;;;;;;;;;5083945;28;20055;-43
2021/06/16 15:25:05;;;;;;;;;;;;;;;;;;5083663;28;20031;-43
2021/06/16 15:27:31;;;;;;;7.40;4.50;;;;;;;;;;5091709;28;19920;-44
2021/06/16 15:29:59;;;;;;;5.07;4.63;;;;;;;;;;5093814;28;20024;-42
2021/06/16 15:32:26;;;;;;;5.35;4.90;;;;;;;;;;5079228;28;20095;-42
2021/06/16 15:34:53;;;;;;;5.88;5.05;;;;;;;;;;5088288;28;20103;-43
2021/06/16 15:37:20;;;;;;;5.57;5.03;;;;;;;;;;5094849;28;20028;-41
2021/06/16 15:39:46;;;;;;;5.72;5.00;;;;;;;;;;5084179;28;20499;-41
2021/06/16 15:42:15;;;;;;;7.50;5.20;;;;;;;;;;5082017;28;20119;-41
2021/06/16 15:44:41;;;;;;;6.95;5.25;;;;;;;;;;5088694;28;20327;-42
2021/06/16 15:47:07;;;;;;;5.68;5.15;;;;;;;;;;5092569;28;20134;-43
2021/06/16 15:49:33;;;;;;;6.35;5.40;;;;;;;;;;5091714;28;20051;-45
2021/06/16 15:51:59;;;;;;;6.88;6.18;;;;;;;;;;5098965;28;20468;-46
2021/06/16 15:54:25;;;;;;;6.88;5.75;;;;;;;;;;5090279;28;20036;-42
2021/06/16 15:56:52;;;;;;;5.57;5.03;;;;;;;;;;5092256;28;20024;-43
2021/06/16 15:59:18;;;;;;;6.38;5.50;;;;;;;;;;5087717;28;20789;-41
2021/06/16 16:01:44;;;;;;;6.03;5.35;;;;;;;;;;5090277;28;20036;-43
2021/06/16 16:04:10;;;;;;;6.15;5.25;;;;;;;;;;5091775;28;20024;-42
2021/06/16 16:06:36;;;;;;;5.95;5.35;;;;;;;;;;5090624;28;20028;-43
2021/06/16 16:09:03;;;;;;;5.57;4.85;;;;;;;;;;5105657;28;20460;-48
2021/06/16 16:11:29;;;;;;;5.30;4.80;;;;;;;;;;5089570;28;20032;-43
2021/06/16 16:13:58;;;;;;;6.20;4.85;;;;;;;;;;5087899;28;20048;-46
2021/06/16 16:16:24;;;;;;;5.45;4.47;;;;;;;;;;5090418;28;20031;-42
2021/06/16 16:18:50;;;;;;;6.93;4.90;;;;;;;;;;5091268;28;20474;-43
2021/06/16 16:21:16;;;;;;;6.70;4.90;;;;;;;;;;5091728;28;20039;-49
2021/06/16 16:23:43;;;;;;;5.38;4.80;;;;;;;;;;5091859;28;20507;-46
2021/06/16 16:26:09;;;;;;;5.15;4.20;;;;;;;;;;5089037;28;20036;-44
2021/06/16 16:28:35;;;;;;;5.20;4.70;;;;;;;;;;5089723;28;20453;-44
2021/06/16 16:31:01;;;;;;;5.10;4.60;;;;;;;;;;5089190;28;20411;-46
2021/06/16 16:33:29;;;;;;;5.05;4.60;;;;;;;;;;5089961;28;20028;-46
2021/06/16 16:35:55;;;;;;;5.10;4.60;;;;;;;;;;5088794;28;20127;-44
2021/06/16 16:38:21;;;;;;;5.28;4.78;;;;;;;;;;5089341;28;20488;-48
2021/06/16 16:40:48;;;;;;;4.60;4.20;;;;;;;;;;5091099;28;20024;-45
2021/06/16 16:43:15;;;;;;;;;;;;;;;;;;5091030;28;20104;-44
2021/06/16 16:45:41;;;;;;;4.72;4.25;;;;;;;;;;5091494;28;20364;-43
2021/06/16 16:48:08;;;;;;;5.10;4.38;;;;;;;;;;5092153;28;20024;-43
2021/06/16 16:50:34;;;;;;;5.15;4.30;;;;;;;;;;5090302;28;20032;-42
2021/06/16 16:53:01;;;;;;;4.97;4.57;;;;;;;;;;5091643;28;20385;-43
2021/06/16 16:55:28;;;;;;;4.82;4.18;;;;;;;;;;5087844;28;20024;-42
2021/06/16 16:57:54;;;;;;;4.88;4.38;;;;;;;;;;5090713;28;20028;-43
2021/06/16 17:00:21;;;;;;;4.68;4.28;;;;;;;;;;5090316;28;20028;-42
2021/06/16 17:02:48;;;;;;;4.82;4.43;;;;;;;;;;5089113;28;20100;-43
2021/06/16 17:05:15;;;;;;;4.80;4.40;;;;;;;;;;5089177;28;20024;-44
2021/06/16 17:07:41;;;;;;;;;;;;;;;;;;5088717;28;20085;-44
2021/06/16 17:10:09;;;;;;;5.18;4.68;;;;;;;;;;5090491;28;19924;-43
2021/06/16 17:12:35;;;;;;;4.47;4.07;;;;;;;;;;5090480;28;20111;-45
2021/06/16 17:15:02;;;;;;;4.60;4.18;;;;;;;;;;5090280;28;20028;-45
2021/06/16 17:17:28;;;;;;;4.78;4.32;;;;;;;;;;5088534;28;20117;-42
2021/06/16 17:19:57;;;;;;;6.22;5.63;;;;;;;;;;5089355;28;20499;-43
2021/06/16 17:22:23;;;;;;;6.53;5.93;;;;;;;;;;5084061;28;20077;-45
2021/06/16 17:24:50;;;;;;;6.50;5.90;;;;;;;;;;5086893;28;20054;-44
2021/06/16 17:27:16;;;;;;;5.32;4.82;;;;;;;;;;5086964;28;20488;-42
2021/06/16 17:29:42;;;;;;;8.93;5.82;;;;;;;;;;5088925;28;20016;-43
2021/06/16 17:32:08;;;;;;;7.10;6.38;;;;;;;;;;5086848;28;20036;-42
2021/06/16 17:34:34;;;;;;;8.00;6.10;;;;;;;;;;5089086;28;20096;-45
2021/06/16 17:37:01;;;;;;;7.10;6.40;;;;;;;;;;5088304;28;20028;-44
2021/06/16 17:39:34;;;;;;;;;;;;;;;;;;5090879;28;20474;-44
2021/06/16 17:42:11;;;;;;;7.32;6.65;;;;;;;;;;5089332;28;19923;-44
2021/06/16 17:44:40;;;;;;;7.35;6.60;;;;;;;;;;5092244;28;20100;-43
2021/06/16 17:47:09;;;;;;;6.95;6.35;;;;;;;;;;5090323;28;20452;-44
2021/06/16 17:49:36;;;;;;;7.40;5.53;;;;;;;;;;5089225;28;20024;-43
2021/06/16 17:52:04;;;;;;;5.93;5.28;;;;;;;;;;5090801;28;20495;-43
2021/06/16 17:54:31;;;;;;;5.75;5.05;;;;;;;;;;5091021;28;20089;-43
2021/06/16 17:56:59;;;;;;;6.80;5.72;;;;;;;;;;5088509;28;20606;-43
2021/06/16 17:59:26;;;;;;;7.20;6.32;;;;;;;;;;5089542;28;20433;-43
2021/06/16 18:01:52;;;;;;;6.05;5.53;;;;;;;;;;5090879;28;20032;-43
2021/06/16 18:04:21;;;;;;;6.88;5.93;;;;;;;;;;5085508;28;20483;-40
2021/06/16 18:06:50;;;;;;;7.53;6.82;;;;;;;;;;5083057;28;20054;-43
2021/06/16 18:09:16;;;;;;;8.60;7.38;;;;;;;;;;5088184;28;20036;-43
2021/06/16 18:11:42;;;;;;;12.23;6.93;;;;;;;;;;5090516;28;20095;-43
2021/06/16 18:14:09;;;;;;;9.20;7.07;;;;;;;;;;5090105;28;20058;-44
2021/06/16 18:16:40;;;;;;;;;;;;;;;;;;5089356;28;20020;-46
2021/06/16 20:31:13;;;;;;;12.68;11.32;;;;;;;;;;5613753;22;20046;-42
2021/06/16 20:33:40;;;;;;;12.40;11.20;;;;;;;;;;5006425;28;20037;-42
2021/06/16 20:36:06;;;;;;;16.60;12.77;;;;;;;;;;5012961;28;20030;-41
2021/06/16 20:38:33;;;;;;;14.00;12.57;;;;;;;;;;5012855;28;20032;-41
2021/06/16 20:40:59;;;;;;;13.43;12.05;;;;;;;;;;5011019;28;20137;-41
2021/06/16 20:43:25;;;;;;;14.30;12.80;;;;;;;;;;5010899;28;20175;-41
2021/06/16 20:45:53;;;;;;;12.90;11.47;;;;;;;;;;5009122;28;20489;-40
2021/06/16 20:48:20;;;;;;;14.35;13.02;;;;;;;;;;5011460;28;20021;-40
2021/06/16 20:50:46;;;;;;;14.50;11.70;;;;;;;;;;5012992;28;20338;-42
2021/06/16 20:53:13;;;;;;;14.50;12.33;;;;;;;;;;5013121;28;20030;-41
2021/06/16 20:55:47;;;;;;;11.82;10.63;;;;;;;;;;5011662;28;20022;-41
2021/06/16 20:58:18;;;;;;;12.98;11.43;;;;;;;;;;5013037;28;20026;-41
2021/06/16 21:00:44;;;;;;;14.07;10.90;;;;;;;;;;5011283;28;20028;-41
2021/06/16 21:03:12;;;;;;;12.47;11.13;;;;;;;;;;5011302;28;20041;-41
2021/06/16 21:05:38;;;;;;;12.80;11.48;;;;;;;;;;5006095;28;20473;-40
2021/06/16 21:08:07;;;;;;;13.50;11.13;;;;;;;;;;5011265;28;20126;-41
2021/06/16 21:10:36;;;;;;;12.48;10.95;;;;;;;;;;5004980;28;20034;-42
2021/06/16 21:13:02;;;;;;;11.88;10.77;;;;;;;;;;5010411;28;20053;-44
